Terminal Aerodrome Forecast
Issued by NWS

Home | Current Version | Previous Version | Text Only | Print | Product List | Glossary Off
Versions: 1 2 3 4 5 6 7 8 9 10 11 12 13 14 15 16 17

679
FTUS43 KICT 162320
TAFCNU
TAF
KCNU 162320Z 1700/1724 14009KT P6SM SCT040
     FM170500 14008KT P6SM BKN025
     FM170800 17012KT 4SM -DZ OVC004
     FM171500 18015KT P6SM OVC007
     FM171800 20015G22KT P6SM BKN025=

USA.gov is the U.S. government's official web portal to all federal, state and local government web resources and services.